sensor_id;sensor_type;location;lat;lon;timestamp;pressure;altitude;pressure_sealevel;temperature;humidity
63582;BME280;49727;51.078;17.066;2022-10-22T00:13:00;99872.25;;;8.44;77.80
63582;BME280;49727;51.078;17.066;2022-10-22T00:28:01;99870.56;;;8.43;78.01
63582;BME280;49727;51.078;17.066;2022-10-22T00:43:01;99833.78;;;8.81;78.15
63582;BME280;49727;51.078;17.066;2022-10-22T00:58:02;99821.63;;;8.95;77.67
63582;BME280;49727;51.078;17.066;2022-10-22T01:28:41;99848.22;;;8.54;77.11
63582;BME280;49727;51.078;17.066;2022-10-22T01:43:37;99800.75;;;8.67;77.09
63582;BME280;49727;51.078;17.066;2022-10-22T02:13:56;99792.44;;;8.87;77.44
63582;BME280;49727;51.078;17.066;2022-10-22T02:29:21;99792.78;;;8.84;77.32
63582;BME280;49727;51.078;17.066;2022-10-22T02:44:24;99798.72;;;8.44;77.25
63582;BME280;49727;51.078;17.066;2022-10-22T02:59:24;99795.44;;;8.26;77.70
63582;BME280;49727;51.078;17.066;2022-10-22T03:14:24;99800.09;;;8.57;78.37
63582;BME280;49727;51.078;17.066;2022-10-22T03:29:26;99784.66;;;8.60;77.80
63582;BME280;49727;51.078;17.066;2022-10-22T03:44:26;99795.13;;;8.54;77.84
63582;BME280;49727;51.078;17.066;2022-10-22T03:59:27;99800.41;;;8.70;78.54
63582;BME280;49727;51.078;17.066;2022-10-22T04:14:27;99791.09;;;8.83;78.56
63582;BME280;49727;51.078;17.066;2022-10-22T04:29:28;99766.88;;;8.94;78.34
63582;BME280;49727;51.078;17.066;2022-10-22T04:44:28;99791.59;;;8.86;78.35
63582;BME280;49727;51.078;17.066;2022-10-22T04:59:28;99816.97;;;9.05;78.65
63582;BME280;49727;51.078;17.066;2022-10-22T05:14:29;99802.97;;;9.20;78.27
63582;BME280;49727;51.078;17.066;2022-10-22T05:29:29;99814.28;;;9.13;78.66
63582;BME280;49727;51.078;17.066;2022-10-22T05:44:29;99852.47;;;9.29;78.82
63582;BME280;49727;51.078;17.066;2022-10-22T05:59:30;99883.66;;;9.52;78.85
63582;BME280;49727;51.078;17.066;2022-10-22T06:14:30;99862.25;;;9.85;78.27
63582;BME280;49727;51.078;17.066;2022-10-22T06:29:31;99851.47;;;10.09;78.50
63582;BME280;49727;51.078;17.066;2022-10-22T06:44:33;99871.13;;;10.31;78.64
63582;BME280;49727;51.078;17.066;2022-10-22T06:59:33;99863.94;;;10.40;77.55
63582;BME280;49727;51.078;17.066;2022-10-22T07:14:34;99883.59;;;10.62;78.20
63582;BME280;49727;51.078;17.066;2022-10-22T07:29:34;99893.25;;;11.01;77.84
63582;BME280;49727;51.078;17.066;2022-10-22T07:44:34;99902.41;;;11.22;77.07
63582;BME280;49727;51.078;17.066;2022-10-22T07:59:35;99905.38;;;11.42;76.87
63582;BME280;49727;51.078;17.066;2022-10-22T08:14:35;99911.91;;;11.55;77.16
63582;BME280;49727;51.078;17.066;2022-10-22T08:29:35;99916.53;;;11.76;77.22
63582;BME280;49727;51.078;17.066;2022-10-22T09:00:14;99937.75;;;12.29;77.79
63582;BME280;49727;51.078;17.066;2022-10-22T09:15:17;99933.09;;;12.74;77.16
63582;BME280;49727;51.078;17.066;2022-10-22T09:30:20;99961.47;;;12.97;77.21
63582;BME280;49727;51.078;17.066;2022-10-22T09:45:25;99960.19;;;13.14;77.15
63582;BME280;49727;51.078;17.066;2022-10-22T10:00:26;99957.22;;;13.31;77.31
63582;BME280;49727;51.078;17.066;2022-10-22T10:15:42;99974.94;;;13.53;77.22
63582;BME280;49727;51.078;17.066;2022-10-22T11:16:58;99950.44;;;14.40;75.91
63582;BME280;49727;51.078;17.066;2022-10-22T11:32:01;99947.50;;;14.77;74.81
63582;BME280;49727;51.078;17.066;2022-10-22T11:47:13;99954.53;;;15.11;74.62
63582;BME280;49727;51.078;17.066;2022-10-22T12:17:24;99949.34;;;15.43;74.65
63582;BME280;49727;51.078;17.066;2022-10-22T12:32:33;99948.97;;;15.26;74.00
63582;BME280;49727;51.078;17.066;2022-10-22T12:47:34;99941.53;;;15.08;74.08
63582;BME280;49727;51.078;17.066;2022-10-22T13:02:34;99941.47;;;14.68;74.19
63582;BME280;49727;51.078;17.066;2022-10-22T13:17:39;99941.97;;;14.30;74.93
63582;BME280;49727;51.078;17.066;2022-10-22T13:32:39;99950.19;;;13.80;75.49
63582;BME280;49727;51.078;17.066;2022-10-22T13:47:42;99962.47;;;13.67;76.71
63582;BME280;49727;51.078;17.066;2022-10-22T14:02:46;99983.22;;;13.59;77.09
63582;BME280;49727;51.078;17.066;2022-10-22T14:17:51;99978.09;;;13.64;78.00
63582;BME280;49727;51.078;17.066;2022-10-22T14:32:52;99997.72;;;13.71;78.28
63582;BME280;49727;51.078;17.066;2022-10-22T14:47:53;100007.16;;;13.67;78.25
63582;BME280;49727;51.078;17.066;2022-10-22T15:02:54;100015.81;;;13.69;78.66
63582;BME280;49727;51.078;17.066;2022-10-22T15:17:55;100023.22;;;13.67;79.10
63582;BME280;49727;51.078;17.066;2022-10-22T15:32:55;100028.31;;;13.62;79.16
63582;BME280;49727;51.078;17.066;2022-10-22T15:47:55;100053.38;;;13.54;79.73
63582;BME280;49727;51.078;17.066;2022-10-22T16:02:55;100078.66;;;13.51;79.99
63582;BME280;49727;51.078;17.066;2022-10-22T16:17:56;100078.84;;;13.50;80.17
63582;BME280;49727;51.078;17.066;2022-10-22T16:32:56;100102.16;;;13.34;80.45
63582;BME280;49727;51.078;17.066;2022-10-22T16:47:56;100116.00;;;13.38;80.75
63582;BME280;49727;51.078;17.066;2022-10-22T17:02:57;100130.66;;;13.42;80.74
63582;BME280;49727;51.078;17.066;2022-10-22T17:18:00;100150.97;;;13.21;80.86
63582;BME280;49727;51.078;17.066;2022-10-22T17:33:04;100165.84;;;13.09;81.27
63582;BME280;49727;51.078;17.066;2022-10-22T17:48:05;100179.13;;;13.02;81.82
63582;BME280;49727;51.078;17.066;2022-10-22T18:03:05;100200.00;;;13.07;82.02
63582;BME280;49727;51.078;17.066;2022-10-22T18:18:05;100200.44;;;13.11;82.13
63582;BME280;49727;51.078;17.066;2022-10-22T18:33:07;100208.84;;;13.08;82.15
63582;BME280;49727;51.078;17.066;2022-10-22T18:48:07;100207.00;;;13.08;82.05
63582;BME280;49727;51.078;17.066;2022-10-22T19:03:07;100228.50;;;13.00;82.07
63582;BME280;49727;51.078;17.066;2022-10-22T19:18:09;100240.38;;;12.82;81.86
63582;BME280;49727;51.078;17.066;2022-10-22T19:33:09;100253.47;;;12.92;82.33
63582;BME280;49727;51.078;17.066;2022-10-22T19:48:09;100266.16;;;12.75;82.05
63582;BME280;49727;51.078;17.066;2022-10-22T20:03:12;100277.31;;;12.64;81.82
63582;BME280;49727;51.078;17.066;2022-10-22T20:18:14;100296.59;;;12.59;81.69
63582;BME280;49727;51.078;17.066;2022-10-22T20:33:14;100305.50;;;12.51;82.33
63582;BME280;49727;51.078;17.066;2022-10-22T20:48:15;100305.25;;;12.38;82.01
63582;BME280;49727;51.078;17.066;2022-10-22T21:03:15;100307.41;;;12.19;81.81
63582;BME280;49727;51.078;17.066;2022-10-22T21:18:16;100318.03;;;12.05;82.18
63582;BME280;49727;51.078;17.066;2022-10-22T21:33:16;100321.69;;;12.04;82.16
63582;BME280;49727;51.078;17.066;2022-10-22T21:48:16;100329.13;;;12.16;82.25
63582;BME280;49727;51.078;17.066;2022-10-22T22:03:17;100332.47;;;12.42;81.93
63582;BME280;49727;51.078;17.066;2022-10-22T22:18:18;100348.41;;;12.27;81.52
63582;BME280;49727;51.078;17.066;2022-10-22T22:33:19;100350.84;;;11.74;80.78
63582;BME280;49727;51.078;17.066;2022-10-22T22:48:19;100358.03;;;11.33;81.89
63582;BME280;49727;51.078;17.066;2022-10-22T23:03:19;100354.56;;;11.00;81.52
63582;BME280;49727;51.078;17.066;2022-10-22T23:18:20;100363.75;;;10.73;81.77
63582;BME280;49727;51.078;17.066;2022-10-22T23:33:20;100360.28;;;10.56;81.89
63582;BME280;49727;51.078;17.066;2022-10-22T23:48:20;100361.44;;;10.53;82.67
